AirNav   BOSE ProFlight Aviation Headset
 
 1531 users online  

3A2 New Tazewell Municipal Airport
Tazewell, Tennessee, USA

GOING TO TAZEWELL?


FAA INFORMATION EFFECTIVE 19 JULY 2018

Location

FAA Identifier: 3A2
Lat/Long: 36-24-32.0271N / 083-33-25.8680W
36-24.533785N / 083-33.431133W
36.4088964 / -83.5571856
(estimated)
Elevation: 1178.8 ft. / 359.3 m (surveyed)
Variation: 05W (2005)
From city: 3 miles SE of TAZEWELL, TN
Time zone: UTC -4 (UTC -5 during Standard Time)
Zip code: 37879

Airport Operations

Airport use: Open to the public
Control tower: no
ARTCC: ATLANTA CENTER
FSS: NASHVILLE FLIGHT SERVICE STATION
NOTAMs facility: BNA (NOTAM-D service available)
Attendance: 0800-1600
REGULARLY UNATTENDED, CONTACT AFTER HOURS NUMBER FOR ASSISTANCE
Wind indicator: lighted
Segmented circle: yes
Beacon: white-green (lighted land airport)
Operates sunset to sunrise.

Airport Communications

CTAF: 122.9
WX AWOS-3 at 1A6 (15 nm NW): 119.425 (606-248-3095)
WX AWOS-3 at MOR (16 nm SE): 126.725 (423-587-5886)
  • APCH/DEP SVC PRVDD BY ATLANTA ARTCC ON FREQS 133.6/254.3 (HINCH MOUNTAIN RCAG).

Nearby radio navigation aids

VOR radial/distance  VOR name  Freq  Var
VXVr031/34.4VOLUNTEER VORTAC116.4003W

 
NDB name  Hdg/Dist  Freq  Var  ID
JEFFERSON352/18.334604WJXT .--- -..- -
ROGERSVILLE272/32.632907WRVN .-. ...- -.
DULANEY304/36.226307WDYQ -.. -.-- --.-

Airport Services

Fuel available: 100LL
Parking: tiedowns
Airframe service: NONE
Powerplant service: NONE
Bottled oxygen: NONE
Bulk oxygen: NONE

Runway Information

Runway 7/25

Dimensions: 5208 x 75 ft. / 1587 x 23 m
Surface: asphalt, in good condition
Weight bearing capacity: 
Single wheel: 16.0
Double wheel: 24.0
Runway edge lights: medium intensity
RUNWAY 7  RUNWAY 25
Latitude: 36-24.350000N36-24.717568N
Longitude: 083-33.910920W083-32.951345W
Elevation: 1176.6 ft.1172.1 ft.
Gradient: 0.1%0.1%
Traffic pattern: leftleft
Runway heading: 070 magnetic, 065 true250 magnetic, 245 true
Markings: basic, in fair conditionbasic, in fair condition
Visual slope indicator: 2-light PAPI on left (3.50 degrees glide path)
ACTVT PAPI RYS 07 & 25 - CTAF.
2-light PAPI on left
Runway end identifier lights: yesyes
Touchdown point: yes, no lightsyes, no lights
Obstructions: 25 ft. trees, 785 ft. from runway, 63 ft. left of centerline, 23:1 slope to clear25 ft. tree, 626 ft. from runway, 199 ft. right of centerline, 17:1 slope to clear

Airport Ownership and Management from official FAA records

Ownership: Publicly-owned
Owner: CITY OF NEW TAZEWELL
PO BOX 609
NEW TAZEWELL, TN 37824
Phone (423) 626-5242
Manager: JERRY HOOPER
380 AIRPORT LANE
TAZEWELL, TN 37879
Phone 423-626-5242

Airport Operational Statistics

Aircraft based on the field: 28
Single engine airplanes: 22
Multi engine airplanes: 5
Ultralights: 1
    
Aircraft operations: avg 32/day *
91% local general aviation
9% transient general aviation
<1% military
* for 12-month period ending 31 August 2015

Additional Remarks

DEER ON OR INVOF ARPT.

Instrument Procedures

NOTE: All procedures below are presented as PDF files. If you need a reader for these files, you should download the free Adobe Reader.

NOT FOR NAVIGATION. Please procure official charts for flight.
FAA instrument procedures published for use from 19 July 2018 at 0901Z to 16 August 2018 at 0900Z.

 
IAPs - Instrument Approach Procedures
RNAV (GPS) RWY 07   download (182KB)
NOTE: Special Take-Off Minimums/Departure Procedures apply   download

Other nearby airports with instrument procedures:

1A6 - Middlesboro-Bell County Airport (15 nm NW)
KMOR - Moore-Murrell Airport (16 nm SE)
0VG - Lee County Airport (22 nm NE)
I35 - Tucker-Guthrie Memorial Airport (29 nm N)
KJAU - Campbell County Airport (30 nm W)
 
Loc | Ops | Rwys | IFR | FBO | Links
Com | Nav | Svcs | Stats | Notes


 
Area around 3A2 (New Tazewell Municipal Airport)
 
Road maps at: MapQuest Bing Google
 
Aerial photo
WARNING: Photo may not be current or correct
Aerial photo of 3A2 (New Tazewell Municipal Airport)
Photo by Morgan Michel

Do you have a better or more recent aerial photo of New Tazewell Municipal Airport that you would like to share? If so, please send us your photo.

 
Sectional chart

 
Airport distance calculator
Flying to New Tazewell Municipal Airport? Find the distance to fly.

From to 3A2

Sunrise and sunset
Times for 19-Jul-2018
 Local
(UTC-4)
 Zulu
(UTC)
Morning civil twilight06:0210:02
Sunrise06:3210:32
Sunset20:4900:49
Evening civil twilight21:1901:19

Current date and time
Zulu (UTC)  19-Jul-2018 21:11:25
Local (UTC-4)  19-Jul-2018 17:11:25
 
METAR
K1A6 
15nm NW 
192055Z AUTO 22004KT 10SM CLR 32/18 A2998 RMK AO2 T03180182
KMOR 
16nm SE 
192055Z AUTO 07006G12KT 10SM FEW043 FEW055 30/21 A2998 RMK A01
K0VG 
22nm NE 
192055Z AUTO 10003KT 10SM CLR 31/18 A3001 RMK AO2
KI35 
29nm N 
192055Z AUTO 10SM SCT049 SCT065 30/18 A3000 RMK AO2 T03010181
KJAU 
30nm W 
192055Z AUTO VRB06KT 10SM FEW050 FEW055 31/19 A3000 RMK A01
TAF
NOTAMs
Click for the latest NOTAMs
NOTAMs are issued by the DoD/FAA and will open in a separate window not controlled by AirNav.

 

 
 

FBO, Fuel Providers, and Aircraft Ground Support

  
 Business Name 
 
 Contact 
 
 Services / Description 
 
Fuel Prices
 
Comments
  
New Tazewell Municipal Airport 423-626-5242
[email]
Aviation fuel, Aircraft parking (ramp or tiedown), Hangar leasing / sales, Passenger terminal and lounge, Rental cars delivered, ...

More info about New Tazewell Municipal Airport
Shell
100LL
SS $4.40 
 Updated 11-Jul-2018
 
   1 read write
SS=Self service
Update Fuel Prices
 

Would you like to see your business listed on this page?

 If your business provides an interesting product or service to pilots, flight crews, aircraft, or users of the New Tazewell Municipal Airport, you should consider listing it here.  To start the listing process, click on the button below
 
Add a business
 

Other Pages about New Tazewell Municipal Airport

Update a link
 
Copyright © AirNav, LLC. All rights reserved. Privacy Policy  Contact